sensor_id;sensor_type;location;lat;lon;timestamp;pressure;altitude;pressure_sealevel;temperature;humidity
69630;BME280;56857;52.212;5.496;2023-01-25T00:02:01;103855.16;;;1.09;100.00
69630;BME280;56857;52.212;5.496;2023-01-25T00:04:26;103852.47;;;1.12;100.00
69630;BME280;56857;52.212;5.496;2023-01-25T00:06:52;103851.59;;;1.13;100.00
69630;BME280;56857;52.212;5.496;2023-01-25T00:09:18;103848.97;;;1.13;100.00
69630;BME280;56857;52.212;5.496;2023-01-25T00:11:46;103851.69;;;1.08;100.00
69630;BME280;56857;52.212;5.496;2023-01-25T00:14:13;103851.81;;;1.02;100.00
69630;BME280;56857;52.212;5.496;2023-01-25T00:16:40;103850.13;;;1.01;100.00
69630;BME280;56857;52.212;5.496;2023-01-25T00:19:07;103853.53;;;1.03;100.00
69630;BME280;56857;52.212;5.496;2023-01-25T00:21:33;103848.38;;;1.02;100.00
69630;BME280;56857;52.212;5.496;2023-01-25T00:23:59;103852.69;;;1.03;100.00
69630;BME280;56857;52.212;5.496;2023-01-25T00:26:24;103843.16;;;1.00;100.00
69630;BME280;56857;52.212;5.496;2023-01-25T00:28:50;103838.78;;;1.01;100.00
69630;BME280;56857;52.212;5.496;2023-01-25T00:34:05;103831.06;;;0.96;100.00
69630;BME280;56857;52.212;5.496;2023-01-25T00:36:39;103838.84;;;0.98;100.00
69630;BME280;56857;52.212;5.496;2023-01-25T00:39:05;103837.22;;;0.93;100.00
69630;BME280;56857;52.212;5.496;2023-01-25T00:41:31;103833.78;;;0.91;100.00
69630;BME280;56857;52.212;5.496;2023-01-25T00:43:56;103835.66;;;0.85;100.00
69630;BME280;56857;52.212;5.496;2023-01-25T00:46:22;103839.22;;;0.82;100.00
69630;BME280;56857;52.212;5.496;2023-01-25T00:48:47;103831.44;;;0.79;100.00
69630;BME280;56857;52.212;5.496;2023-01-25T00:51:13;103824.41;;;0.81;100.00
69630;BME280;56857;52.212;5.496;2023-01-25T00:53:38;103827.84;;;0.83;100.00
69630;BME280;56857;52.212;5.496;2023-01-25T00:56:04;103820.88;;;0.85;100.00
69630;BME280;56857;52.212;5.496;2023-01-25T00:58:29;103824.22;;;0.90;100.00
69630;BME280;56857;52.212;5.496;2023-01-25T01:00:55;103825.00;;;0.94;100.00
69630;BME280;56857;52.212;5.496;2023-01-25T01:03:21;103831.84;;;1.00;100.00
69630;BME280;56857;52.212;5.496;2023-01-25T01:05:46;103824.78;;;1.05;100.00
69630;BME280;56857;52.212;5.496;2023-01-25T01:08:13;103816.13;;;1.03;100.00
69630;BME280;56857;52.212;5.496;2023-01-25T01:10:39;103825.78;;;0.99;100.00
69630;BME280;56857;52.212;5.496;2023-01-25T01:13:04;103828.44;;;0.96;100.00
69630;BME280;56857;52.212;5.496;2023-01-25T01:15:30;103824.13;;;0.95;100.00
69630;BME280;56857;52.212;5.496;2023-01-25T01:17:56;103822.38;;;0.96;100.00
69630;BME280;56857;52.212;5.496;2023-01-25T01:20:22;103817.16;;;0.94;100.00
69630;BME280;56857;52.212;5.496;2023-01-25T01:22:48;103823.25;;;0.95;100.00
69630;BME280;56857;52.212;5.496;2023-01-25T01:25:15;103814.66;;;0.89;100.00
69630;BME280;56857;52.212;5.496;2023-01-25T01:27:41;103820.78;;;0.88;100.00
69630;BME280;56857;52.212;5.496;2023-01-25T01:30:07;103813.03;;;0.85;100.00
69630;BME280;56857;52.212;5.496;2023-01-25T01:32:32;103816.56;;;0.83;100.00
69630;BME280;56857;52.212;5.496;2023-01-25T01:34:58;103812.19;;;0.83;100.00
69630;BME280;56857;52.212;5.496;2023-01-25T01:37:24;103813.94;;;0.83;100.00
69630;BME280;56857;52.212;5.496;2023-01-25T01:39:51;103814.81;;;0.83;100.00
69630;BME280;56857;52.212;5.496;2023-01-25T01:42:17;103814.81;;;0.83;100.00
69630;BME280;56857;52.212;5.496;2023-01-25T01:44:45;103811.34;;;0.81;100.00
69630;BME280;56857;52.212;5.496;2023-01-25T01:47:17;103815.78;;;0.79;100.00
69630;BME280;56857;52.212;5.496;2023-01-25T01:49:50;103805.34;;;0.78;100.00
69630;BME280;56857;52.212;5.496;2023-01-25T01:52:21;103804.50;;;0.76;100.00
69630;BME280;56857;52.212;5.496;2023-01-25T01:54:56;103808.94;;;0.72;100.00
69630;BME280;56857;52.212;5.496;2023-01-25T01:57:43;103798.47;;;0.74;100.00
69630;BME280;56857;52.212;5.496;2023-01-25T02:00:21;103803.56;;;0.80;100.00
69630;BME280;56857;52.212;5.496;2023-01-25T02:02:48;103805.16;;;0.87;100.00
69630;BME280;56857;52.212;5.496;2023-01-25T02:05:19;103791.16;;;0.89;100.00
69630;BME280;56857;52.212;5.496;2023-01-25T02:07:48;103789.34;;;0.93;100.00
69630;BME280;56857;52.212;5.496;2023-01-25T02:10:16;103790.97;;;0.97;100.00
69630;BME280;56857;52.212;5.496;2023-01-25T02:12:43;103790.09;;;0.98;100.00
69630;BME280;56857;52.212;5.496;2023-01-25T02:15:17;103791.81;;;0.99;100.00
69630;BME280;56857;52.212;5.496;2023-01-25T02:17:43;103788.31;;;1.00;100.00
69630;BME280;56857;52.212;5.496;2023-01-25T02:20:45;103784.91;;;0.97;100.00
69630;BME280;56857;52.212;5.496;2023-01-25T02:25:59;103777.97;;;0.96;100.00
69630;BME280;56857;52.212;5.496;2023-01-25T02:28:49;103778.81;;;0.96;100.00
69630;BME280;56857;52.212;5.496;2023-01-25T02:31:16;103771.78;;;1.00;100.00
69630;BME280;56857;52.212;5.496;2023-01-25T02:33:42;103777.78;;;1.03;100.00
69630;BME280;56857;52.212;5.496;2023-01-25T02:38:44;103781.31;;;1.01;100.00
69630;BME280;56857;52.212;5.496;2023-01-25T02:41:37;103772.59;;;1.02;100.00
69630;BME280;56857;52.212;5.496;2023-01-25T02:44:06;103773.53;;;0.99;100.00
69630;BME280;56857;52.212;5.496;2023-01-25T02:46:35;103774.50;;;0.95;100.00
69630;BME280;56857;52.212;5.496;2023-01-25T02:49:03;103778.91;;;0.93;100.00
69630;BME280;56857;52.212;5.496;2023-01-25T02:51:32;103778.09;;;0.89;100.00
69630;BME280;56857;52.212;5.496;2023-01-25T02:53:58;103771.13;;;0.90;100.00
69630;BME280;56857;52.212;5.496;2023-01-25T02:56:25;103772.03;;;0.89;100.00
69630;BME280;56857;52.212;5.496;2023-01-25T02:58:51;103765.06;;;0.88;100.00
69630;BME280;56857;52.212;5.496;2023-01-25T03:01:16;103759.78;;;0.91;100.00
69630;BME280;56857;52.212;5.496;2023-01-25T03:03:42;103754.56;;;0.91;100.00
69630;BME280;56857;52.212;5.496;2023-01-25T03:06:07;103758.84;;;0.95;100.00
69630;BME280;56857;52.212;5.496;2023-01-25T03:08:33;103754.41;;;0.99;100.00
69630;BME280;56857;52.212;5.496;2023-01-25T03:11:01;103750.84;;;1.01;100.00
69630;BME280;56857;52.212;5.496;2023-01-25T03:13:28;103753.41;;;1.04;100.00
69630;BME280;56857;52.212;5.496;2023-01-25T03:16:08;103752.63;;;0.99;100.00
69630;BME280;56857;52.212;5.496;2023-01-25T03:18:35;103748.38;;;0.95;100.00
69630;BME280;56857;52.212;5.496;2023-01-25T03:21:13;103744.09;;;0.91;100.00
69630;BME280;56857;52.212;5.496;2023-01-25T03:23:40;103748.41;;;0.93;100.00
69630;BME280;56857;52.212;5.496;2023-01-25T03:26:11;103743.25;;;0.90;100.00
69630;BME280;56857;52.212;5.496;2023-01-25T03:28:37;103741.56;;;0.88;100.00
69630;BME280;56857;52.212;5.496;2023-01-25T03:31:05;103732.94;;;0.84;100.00
69630;BME280;56857;52.212;5.496;2023-01-25T03:33:31;103729.59;;;0.79;100.00
69630;BME280;56857;52.212;5.496;2023-01-25T03:35:57;103725.38;;;0.74;100.00
69630;BME280;56857;52.212;5.496;2023-01-25T03:38:22;103717.59;;;0.71;100.00
69630;BME280;56857;52.212;5.496;2023-01-25T03:40:48;103715.06;;;0.67;100.00
69630;BME280;56857;52.212;5.496;2023-01-25T03:43:13;103715.00;;;0.69;100.00
69630;BME280;56857;52.212;5.496;2023-01-25T03:45:39;103710.59;;;0.73;100.00
69630;BME280;56857;52.212;5.496;2023-01-25T03:48:05;103712.31;;;0.74;100.00
69630;BME280;56857;52.212;5.496;2023-01-25T03:50:31;103709.72;;;0.72;100.00
69630;BME280;56857;52.212;5.496;2023-01-25T03:52:57;103710.69;;;0.68;100.00
69630;BME280;56857;52.212;5.496;2023-01-25T03:55:23;103710.75;;;0.65;100.00
69630;BME280;56857;52.212;5.496;2023-01-25T03:57:48;103710.00;;;0.60;100.00
69630;BME280;56857;52.212;5.496;2023-01-25T04:00:14;103717.94;;;0.55;100.00
69630;BME280;56857;52.212;5.496;2023-01-25T04:02:40;103716.25;;;0.53;100.00
69630;BME280;56857;52.212;5.496;2023-01-25T04:05:05;103708.47;;;0.51;100.00
69630;BME280;56857;52.212;5.496;2023-01-25T04:07:33;103705.03;;;0.49;100.00
69630;BME280;56857;52.212;5.496;2023-01-25T04:10:01;103708.59;;;0.45;100.00
69630;BME280;56857;52.212;5.496;2023-01-25T04:12:26;103706.84;;;0.44;100.00
69630;BME280;56857;52.212;5.496;2023-01-25T04:14:51;103702.66;;;0.38;100.00
69630;BME280;56857;52.212;5.496;2023-01-25T04:17:17;103707.03;;;0.36;100.00
69630;BME280;56857;52.212;5.496;2023-01-25T04:19:42;103714.00;;;0.36;100.00
69630;BME280;56857;52.212;5.496;2023-01-25T04:22:07;103711.41;;;0.34;100.00
69630;BME280;56857;52.212;5.496;2023-01-25T04:24:33;103709.59;;;0.39;100.00
69630;BME280;56857;52.212;5.496;2023-01-25T04:26:59;103702.59;;;0.41;100.00
69630;BME280;56857;52.212;5.496;2023-01-25T04:29:24;103700.84;;;0.42;100.00
69630;BME280;56857;52.212;5.496;2023-01-25T04:31:50;103695.56;;;0.43;100.00
69630;BME280;56857;52.212;5.496;2023-01-25T04:34:15;103689.47;;;0.44;100.00
69630;BME280;56857;52.212;5.496;2023-01-25T04:36:40;103680.75;;;0.44;100.00
69630;BME280;56857;52.212;5.496;2023-01-25T04:39:05;103679.91;;;0.43;100.00
69630;BME280;56857;52.212;5.496;2023-01-25T04:41:33;103685.13;;;0.43;100.00
69630;BME280;56857;52.212;5.496;2023-01-25T04:43:58;103679.97;;;0.42;100.00
69630;BME280;56857;52.212;5.496;2023-01-25T04:46:24;103677.38;;;0.40;100.00
69630;BME280;56857;52.212;5.496;2023-01-25T04:48:49;103673.91;;;0.40;100.00
69630;BME280;56857;52.212;5.496;2023-01-25T04:51:14;103667.91;;;0.36;100.00
69630;BME280;56857;52.212;5.496;2023-01-25T04:53:40;103663.56;;;0.35;100.00
69630;BME280;56857;52.212;5.496;2023-01-25T04:56:05;103669.66;;;0.36;100.00
69630;BME280;56857;52.212;5.496;2023-01-25T04:58:30;103667.91;;;0.36;100.00
69630;BME280;56857;52.212;5.496;2023-01-25T05:00:59;103674.88;;;0.36;100.00
69630;BME280;56857;52.212;5.496;2023-01-25T05:03:25;103676.69;;;0.32;100.00
69630;BME280;56857;52.212;5.496;2023-01-25T05:05:50;103675.78;;;0.35;100.00
69630;BME280;56857;52.212;5.496;2023-01-25T05:08:15;103674.94;;;0.33;100.00
69630;BME280;56857;52.212;5.496;2023-01-25T05:10:40;103668.94;;;0.28;100.00
69630;BME280;56857;52.212;5.496;2023-01-25T05:13:06;103663.00;;;0.22;100.00
69630;BME280;56857;52.212;5.496;2023-01-25T05:15:31;103663.06;;;0.19;100.00
69630;BME280;56857;52.212;5.496;2023-01-25T05:17:56;103667.38;;;0.20;100.00
69630;BME280;56857;52.212;5.496;2023-01-25T05:20:21;103663.06;;;0.19;100.00
69630;BME280;56857;52.212;5.496;2023-01-25T05:22:47;103664.78;;;0.19;100.00
69630;BME280;56857;52.212;5.496;2023-01-25T05:25:39;103663.97;;;0.17;100.00
69630;BME280;56857;52.212;5.496;2023-01-25T05:28:05;103655.28;;;0.16;100.00
69630;BME280;56857;52.212;5.496;2023-01-25T05:30:32;103654.44;;;0.16;100.00
69630;BME280;56857;52.212;5.496;2023-01-25T05:33:10;103650.06;;;0.16;100.00
69630;BME280;56857;52.212;5.496;2023-01-25T05:36:19;103649.22;;;0.16;100.00
69630;BME280;56857;52.212;5.496;2023-01-25T05:38:27;103653.47;;;0.20;100.00
69630;BME280;56857;52.212;5.496;2023-01-25T05:40:57;103656.03;;;0.21;100.00
69630;BME280;56857;52.212;5.496;2023-01-25T05:43:22;103648.19;;;0.23;100.00
69630;BME280;56857;52.212;5.496;2023-01-25T05:45:50;103648.94;;;0.28;100.00
69630;BME280;56857;52.212;5.496;2023-01-25T05:48:16;103648.78;;;0.34;100.00
69630;BME280;56857;52.212;5.496;2023-01-25T05:50:41;103652.19;;;0.38;100.00
69630;BME280;56857;52.212;5.496;2023-01-25T05:53:06;103659.22;;;0.36;100.00
69630;BME280;56857;52.212;5.496;2023-01-25T05:55:34;103660.97;;;0.35;100.00
69630;BME280;56857;52.212;5.496;2023-01-25T05:58:00;103658.38;;;0.34;100.00
69630;BME280;56857;52.212;5.496;2023-01-25T06:00:25;103660.91;;;0.38;100.00
69630;BME280;56857;52.212;5.496;2023-01-25T06:02:52;103665.16;;;0.42;100.00
69630;BME280;56857;52.212;5.496;2023-01-25T06:05:17;103673.81;;;0.44;100.00
69630;BME280;56857;52.212;5.496;2023-01-25T06:07:43;103672.84;;;0.49;100.00
69630;BME280;56857;52.212;5.496;2023-01-25T06:10:08;103670.16;;;0.52;100.00
69630;BME280;56857;52.212;5.496;2023-01-25T06:12:33;103674.47;;;0.54;100.00
69630;BME280;56857;52.212;5.496;2023-01-25T06:14:59;103669.31;;;0.51;100.00
69630;BME280;56857;52.212;5.496;2023-01-25T06:17:24;103662.41;;;0.49;100.00
69630;BME280;56857;52.212;5.496;2023-01-25T06:19:53;103665.16;;;0.42;100.00
69630;BME280;56857;52.212;5.496;2023-01-25T06:22:19;103663.50;;;0.38;100.00
69630;BME280;56857;52.212;5.496;2023-01-25T06:24:44;103664.53;;;0.31;100.00
69630;BME280;56857;52.212;5.496;2023-01-25T06:27:09;103665.53;;;0.26;100.00
69630;BME280;56857;52.212;5.496;2023-01-25T06:29:34;103659.53;;;0.20;100.00
69630;BME280;56857;52.212;5.496;2023-01-25T06:32:00;103661.31;;;0.18;100.00
69630;BME280;56857;52.212;5.496;2023-01-25T06:34:25;103665.72;;;0.16;100.00
69630;BME280;56857;52.212;5.496;2023-01-25T06:36:54;103669.25;;;0.14;100.00
69630;BME280;56857;52.212;5.496;2023-01-25T06:39:19;103677.16;;;0.09;100.00
69630;BME280;56857;52.212;5.496;2023-01-25T06:41:45;103661.56;;;0.08;100.00
69630;BME280;56857;52.212;5.496;2023-01-25T06:44:11;103659.78;;;0.10;100.00
69630;BME280;56857;52.212;5.496;2023-01-25T06:46:36;103657.13;;;0.13;100.00
69630;BME280;56857;52.212;5.496;2023-01-25T06:49:01;103660.59;;;0.12;100.00
69630;BME280;56857;52.212;5.496;2023-01-25T06:51:28;103663.25;;;0.10;100.00
69630;BME280;56857;52.212;5.496;2023-01-25T06:54:02;103669.38;;;0.08;100.00
69630;BME280;56857;52.212;5.496;2023-01-25T06:56:28;103664.19;;;0.06;100.00
69630;BME280;56857;52.212;5.496;2023-01-25T06:58:56;103663.38;;;0.04;100.00
69630;BME280;56857;52.212;5.496;2023-01-25T07:01:22;103662.47;;;0.05;100.00
69630;BME280;56857;52.212;5.496;2023-01-25T07:03:49;103658.09;;;0.06;100.00
69630;BME280;56857;52.212;5.496;2023-01-25T07:06:14;103651.13;;;0.08;100.00
69630;BME280;56857;52.212;5.496;2023-01-25T07:08:39;103651.97;;;0.10;100.00
69630;BME280;56857;52.212;5.496;2023-01-25T07:14:29;103644.19;;;0.07;100.00
69630;BME280;56857;52.212;5.496;2023-01-25T07:16:55;103635.47;;;0.08;100.00
69630;BME280;56857;52.212;5.496;2023-01-25T07:19:20;103637.28;;;0.04;100.00
69630;BME280;56857;52.212;5.496;2023-01-25T07:21:46;103634.69;;;0.04;100.00
69630;BME280;56857;52.212;5.496;2023-01-25T07:24:13;103633.84;;;0.04;100.00
69630;BME280;56857;52.212;5.496;2023-01-25T07:26:39;103636.38;;;0.05;100.00
69630;BME280;56857;52.212;5.496;2023-01-25T07:29:05;103641.59;;;0.07;100.00
69630;BME280;56857;52.212;5.496;2023-01-25T07:31:30;103646.69;;;0.11;100.00
69630;BME280;56857;52.212;5.496;2023-01-25T07:33:57;103650.13;;;0.13;100.00
69630;BME280;56857;52.212;5.496;2023-01-25T07:36:25;103645.00;;;0.10;100.00
69630;BME280;56857;52.212;5.496;2023-01-25T07:38:54;103644.13;;;0.10;100.00
69630;BME280;56857;52.212;5.496;2023-01-25T07:41:20;103645.00;;;0.09;100.00
69630;BME280;56857;52.212;5.496;2023-01-25T07:43:45;103636.38;;;0.07;100.00
69630;BME280;56857;52.212;5.496;2023-01-25T07:46:11;103631.97;;;0.09;100.00
69630;BME280;56857;52.212;5.496;2023-01-25T07:48:37;103633.69;;;0.10;100.00
69630;BME280;56857;52.212;5.496;2023-01-25T07:51:05;103630.13;;;0.14;100.00
69630;BME280;56857;52.212;5.496;2023-01-25T07:53:30;103624.84;;;0.17;100.00
69630;BME280;56857;52.212;5.496;2023-01-25T07:55:57;103629.16;;;0.19;100.00
69630;BME280;56857;52.212;5.496;2023-01-25T07:58:23;103624.78;;;0.18;100.00
69630;BME280;56857;52.212;5.496;2023-01-25T08:00:48;103616.13;;;0.18;100.00
69630;BME280;56857;52.212;5.496;2023-01-25T08:03:13;103613.44;;;0.21;100.00
69630;BME280;56857;52.212;5.496;2023-01-25T08:05:43;103607.31;;;0.23;100.00
69630;BME280;56857;52.212;5.496;2023-01-25T08:08:09;103618.50;;;0.29;100.00
69630;BME280;56857;52.212;5.496;2023-01-25T08:10:34;103612.41;;;0.28;100.00
69630;BME280;56857;52.212;5.496;2023-01-25T08:12:59;103613.44;;;0.22;100.00
69630;BME280;56857;52.212;5.496;2023-01-25T08:15:24;103618.72;;;0.18;100.00
69630;BME280;56857;52.212;5.496;2023-01-25T08:17:51;103609.28;;;0.12;100.00
69630;BME280;56857;52.212;5.496;2023-01-25T08:20:16;103614.56;;;0.09;100.00
69630;BME280;56857;52.212;5.496;2023-01-25T08:22:42;103613.75;;;0.07;100.00
69630;BME280;56857;52.212;5.496;2023-01-25T08:25:07;103618.19;;;0.04;100.00
69630;BME280;56857;52.212;5.496;2023-01-25T08:27:32;103612.19;;;-0.02;100.00
69630;BME280;56857;52.212;5.496;2023-01-25T08:29:57;103613.91;;;-0.01;100.00
69630;BME280;56857;52.212;5.496;2023-01-25T08:32:23;103607.69;;;0.05;100.00
69630;BME280;56857;52.212;5.496;2023-01-25T08:34:48;103606.72;;;0.09;100.00
69630;BME280;56857;52.212;5.496;2023-01-25T08:37:14;103609.41;;;0.08;100.00
69630;BME280;56857;52.212;5.496;2023-01-25T08:39:39;103609.53;;;0.02;100.00
69630;BME280;56857;52.212;5.496;2023-01-25T08:42:05;103609.53;;;0.02;100.00
69630;BME280;56857;52.212;5.496;2023-01-25T08:44:30;103606.84;;;0.05;100.00
69630;BME280;56857;52.212;5.496;2023-01-25T08:46:55;103599.88;;;0.05;100.00
69630;BME280;56857;52.212;5.496;2023-01-25T08:49:21;103603.38;;;0.04;100.00
69630;BME280;56857;52.212;5.496;2023-01-25T08:51:49;103604.31;;;0.02;100.00
69630;BME280;56857;52.212;5.496;2023-01-25T08:54:14;103594.78;;;0.01;100.00
69630;BME280;56857;52.212;5.496;2023-01-25T08:56:40;103593.94;;;-0.02;100.00
69630;BME280;56857;52.212;5.496;2023-01-25T08:59:07;103589.63;;;-0.03;100.00
69630;BME280;56857;52.212;5.496;2023-01-25T09:01:34;103588.72;;;-0.02;100.00
69630;BME280;56857;52.212;5.496;2023-01-25T09:04:00;103588.66;;;0.02;100.00
69630;BME280;56857;52.212;5.496;2023-01-25T09:06:25;103599.94;;;0.04;100.00
69630;BME280;56857;52.212;5.496;2023-01-25T09:08:50;103592.03;;;0.07;100.00
69630;BME280;56857;52.212;5.496;2023-01-25T09:11:18;103587.75;;;0.04;100.00
69630;BME280;56857;52.212;5.496;2023-01-25T09:13:45;103586.94;;;0.01;100.00
69630;BME280;56857;52.212;5.496;2023-01-25T09:16:13;103583.50;;;-0.02;100.00
69630;BME280;56857;52.212;5.496;2023-01-25T09:18:41;103575.81;;;-0.08;100.00
69630;BME280;56857;52.212;5.496;2023-01-25T09:21:17;103581.81;;;-0.04;100.00
69630;BME280;56857;52.212;5.496;2023-01-25T09:23:43;103573.97;;;-0.03;100.00
69630;BME280;56857;52.212;5.496;2023-01-25T09:26:10;103570.53;;;-0.03;100.00
69630;BME280;56857;52.212;5.496;2023-01-25T09:28:38;103565.31;;;-0.05;100.00
69630;BME280;56857;52.212;5.496;2023-01-25T09:31:04;103570.53;;;-0.05;100.00
69630;BME280;56857;52.212;5.496;2023-01-25T09:33:35;103575.81;;;-0.06;100.00
69630;BME280;56857;52.212;5.496;2023-01-25T09:36:02;103568.00;;;-0.08;100.00
69630;BME280;56857;52.212;5.496;2023-01-25T09:38:28;103568.91;;;-0.09;100.00
69630;BME280;56857;52.212;5.496;2023-01-25T09:40:58;103567.97;;;-0.06;100.00
69630;BME280;56857;52.212;5.496;2023-01-25T09:51:57;103557.38;;;0.02;100.00
69630;BME280;56857;52.212;5.496;2023-01-25T09:54:26;103556.47;;;0.03;100.00
69630;BME280;56857;52.212;5.496;2023-01-25T09:56:52;103553.06;;;0.01;100.00
69630;BME280;56857;52.212;5.496;2023-01-25T09:59:18;103559.13;;;-0.01;100.00
69630;BME280;56857;52.212;5.496;2023-01-25T10:02:01;103556.59;;;-0.02;100.00
69630;BME280;56857;52.212;5.496;2023-01-25T10:04:39;103561.75;;;-0.01;100.00
69630;BME280;56857;52.212;5.496;2023-01-25T10:07:22;103558.97;;;0.07;100.00
69630;BME280;56857;52.212;5.496;2023-01-25T10:09:56;103545.03;;;0.10;100.00
69630;BME280;56857;52.212;5.496;2023-01-25T10:12:24;103541.59;;;0.08;100.00
69630;BME280;56857;52.212;5.496;2023-01-25T10:14:50;103530.31;;;0.06;100.00
69630;BME280;56857;52.212;5.496;2023-01-25T10:23:30;103522.63;;;-0.01;100.00
69630;BME280;56857;52.212;5.496;2023-01-25T10:26:09;103519.22;;;-0.03;100.00
69630;BME280;56857;52.212;5.496;2023-01-25T10:31:21;103501.97;;;-0.08;100.00
69630;BME280;56857;52.212;5.496;2023-01-25T10:33:51;103500.19;;;-0.08;100.00
69630;BME280;56857;52.212;5.496;2023-01-25T10:36:23;103505.41;;;-0.08;100.00
69630;BME280;56857;52.212;5.496;2023-01-25T10:38:52;103498.38;;;-0.04;100.00
69630;BME280;56857;52.212;5.496;2023-01-25T10:41:24;103498.34;;;-0.03;100.00
69630;BME280;56857;52.212;5.496;2023-01-25T10:43:51;103492.25;;;-0.02;100.00
69630;BME280;56857;52.212;5.496;2023-01-25T10:46:25;103490.47;;;0.01;100.00
69630;BME280;56857;52.212;5.496;2023-01-25T10:48:51;103487.00;;;0.00;100.00
69630;BME280;56857;52.212;5.496;2023-01-25T10:51:37;103482.59;;;0.02;100.00
69630;BME280;56857;52.212;5.496;2023-01-25T10:54:04;103484.34;;;0.02;100.00
69630;BME280;56857;52.212;5.496;2023-01-25T10:56:34;103480.97;;;-0.02;100.00
69630;BME280;56857;52.212;5.496;2023-01-25T10:59:23;103474.97;;;-0.06;100.00
69630;BME280;56857;52.212;5.496;2023-01-25T11:01:50;103467.16;;;-0.07;100.00
69630;BME280;56857;52.212;5.496;2023-01-25T11:04:30;103463.69;;;-0.08;100.00
69630;BME280;56857;52.212;5.496;2023-01-25T11:06:58;103460.19;;;-0.07;100.00
69630;BME280;56857;52.212;5.496;2023-01-25T11:09:32;103445.44;;;-0.06;100.00
69630;BME280;56857;52.212;5.496;2023-01-25T11:12:03;103437.63;;;-0.08;100.00
69630;BME280;56857;52.212;5.496;2023-01-25T11:14:31;103430.59;;;-0.04;100.00
69630;BME280;56857;52.212;5.496;2023-01-25T11:16:58;103424.50;;;-0.03;100.00
69630;BME280;56857;52.212;5.496;2023-01-25T11:19:26;103428.81;;;-0.02;100.00
69630;BME280;56857;52.212;5.496;2023-01-25T11:21:53;103427.88;;;0.01;100.00
69630;BME280;56857;52.212;5.496;2023-01-25T11:24:20;103416.50;;;0.03;100.00
69630;BME280;56857;52.212;5.496;2023-01-25T11:26:45;103406.94;;;0.04;100.00
69630;BME280;56857;52.212;5.496;2023-01-25T11:29:21;103403.44;;;0.03;100.00
69630;BME280;56857;52.212;5.496;2023-01-25T11:31:53;103397.44;;;0.01;100.00
69630;BME280;56857;52.212;5.496;2023-01-25T11:34:27;103389.63;;;-0.01;100.00
69630;BME280;56857;52.212;5.496;2023-01-25T11:37:02;103391.31;;;0.02;100.00
69630;BME280;56857;52.212;5.496;2023-01-25T11:45:19;103363.41;;;0.06;100.00
69630;BME280;56857;52.212;5.496;2023-01-25T11:50:44;103353.88;;;0.05;100.00
69630;BME280;56857;52.212;5.496;2023-01-25T11:53:16;103339.84;;;0.09;100.00
69630;BME280;56857;52.212;5.496;2023-01-25T11:55:57;103326.63;;;0.16;100.00
69630;BME280;56857;52.212;5.496;2023-01-25T12:01:54;103310.66;;;0.29;100.00
69630;BME280;56857;52.212;5.496;2023-01-25T12:06:58;103302.84;;;0.27;100.00
69630;BME280;56857;52.212;5.496;2023-01-25T12:17:50;103280.69;;;0.11;100.00
69630;BME280;56857;52.212;5.496;2023-01-25T12:28:10;103265.66;;;0.20;100.00
69630;BME280;56857;52.212;5.496;2023-01-25T12:33:31;103260.56;;;0.16;100.00
69630;BME280;56857;52.212;5.496;2023-01-25T12:39:15;103255.53;;;0.10;100.00
69630;BME280;56857;52.212;5.496;2023-01-25T12:41:52;103251.28;;;0.06;100.00
69630;BME280;56857;52.212;5.496;2023-01-25T12:47:04;103231.56;;;-0.05;100.00
69630;BME280;56857;52.212;5.496;2023-01-25T12:49:40;103234.25;;;-0.08;100.00
69630;BME280;56857;52.212;5.496;2023-01-25T12:52:32;103216.06;;;-0.09;100.00
69630;BME280;56857;52.212;5.496;2023-01-25T12:55:04;103216.16;;;-0.12;100.00
69630;BME280;56857;52.212;5.496;2023-01-25T13:05:02;103197.91;;;-0.14;100.00
69630;BME280;56857;52.212;5.496;2023-01-25T13:07:46;103198.06;;;-0.18;100.00
69630;BME280;56857;52.212;5.496;2023-01-25T13:10:30;103192.94;;;-0.21;100.00
69630;BME280;56857;52.212;5.496;2023-01-25T13:13:02;103192.97;;;-0.23;100.00
69630;BME280;56857;52.212;5.496;2023-01-25T13:15:46;103193.88;;;-0.26;100.00
69630;BME280;56857;52.212;5.496;2023-01-25T13:20:51;103199.97;;;-0.25;100.00
69630;BME280;56857;52.212;5.496;2023-01-25T13:23:31;103194.78;;;-0.25;100.00
69630;BME280;56857;52.212;5.496;2023-01-25T13:28:49;103185.13;;;-0.23;100.00
69630;BME280;56857;52.212;5.496;2023-01-25T13:35:03;103170.25;;;-0.19;100.00
69630;BME280;56857;52.212;5.496;2023-01-25T13:37:22;103168.66;;;-0.24;100.00
69630;BME280;56857;52.212;5.496;2023-01-25T13:39:52;103180.00;;;-0.26;100.00
69630;BME280;56857;52.212;5.496;2023-01-25T13:45:00;103164.38;;;-0.26;100.00
69630;BME280;56857;52.212;5.496;2023-01-25T13:47:32;103159.13;;;-0.25;100.00
69630;BME280;56857;52.212;5.496;2023-01-25T13:50:23;103157.31;;;-0.22;100.00
69630;BME280;56857;52.212;5.496;2023-01-25T13:55:24;103142.56;;;-0.22;100.00
69630;BME280;56857;52.212;5.496;2023-01-25T13:57:50;103145.06;;;-0.19;100.00
69630;BME280;56857;52.212;5.496;2023-01-25T14:00:16;103140.81;;;-0.23;100.00
69630;BME280;56857;52.212;5.496;2023-01-25T14:02:45;103146.00;;;-0.21;100.00
69630;BME280;56857;52.212;5.496;2023-01-25T14:05:32;103140.78;;;-0.21;100.00
69630;BME280;56857;52.212;5.496;2023-01-25T14:07:58;103132.97;;;-0.21;100.00
69630;BME280;56857;52.212;5.496;2023-01-25T14:10:24;103132.91;;;-0.20;100.00
69630;BME280;56857;52.212;5.496;2023-01-25T14:12:53;103130.38;;;-0.21;100.00
69630;BME280;56857;52.212;5.496;2023-01-25T14:15:28;103127.75;;;-0.21;100.00
69630;BME280;56857;52.212;5.496;2023-01-25T14:18:16;103121.72;;;-0.22;100.00
69630;BME280;56857;52.212;5.496;2023-01-25T14:20:43;103115.59;;;-0.22;100.00
69630;BME280;56857;52.212;5.496;2023-01-25T14:23:35;103110.41;;;-0.22;100.00
69630;BME280;56857;52.212;5.496;2023-01-25T14:26:01;103107.84;;;-0.24;100.00